createdAt,value
2022-09-15T00:09:15.574Z,100.00
2022-09-15T00:19:24.755Z,100.00
2022-09-15T00:29:31.765Z,100.00
2022-09-15T00:39:38.759Z,100.00
2022-09-15T00:49:46.406Z,100.00
2022-09-15T01:01:13.486Z,100.00
2022-09-15T01:11:24.041Z,100.00
2022-09-15T01:22:50.135Z,100.00
2022-09-15T03:33:24.090Z,100.00
2022-09-15T05:21:31.585Z,100.00
2022-09-15T05:35:35.460Z,100.00
2022-09-15T05:51:00.368Z,100.00
2022-09-15T06:06:23.764Z,100.00
2022-09-15T07:01:41.537Z,100.00
2022-09-15T07:14:26.159Z,100.00
2022-09-15T08:55:52.033Z,88.11
2022-09-15T09:33:49.360Z,73.97
2022-09-15T09:57:12.543Z,60.44
2022-09-15T10:07:18.699Z,57.56
2022-09-15T10:18:48.997Z,61.19
2022-09-15T10:28:58.103Z,61.96
2022-09-15T10:43:04.674Z,56.41
2022-09-15T11:27:39.634Z,51.33
2022-09-15T11:37:45.299Z,55.25
2022-09-15T11:49:12.596Z,59.74
2022-09-15T11:59:19.195Z,62.69
2022-09-15T12:09:26.726Z,65.28
2022-09-15T12:19:34.635Z,58.68
2022-09-15T12:31:03.063Z,49.00
2022-09-15T12:41:14.017Z,45.19
2022-09-15T12:51:21.838Z,46.49
2022-09-15T13:01:27.845Z,52.46
2022-09-15T15:57:14.142Z,74.39
2022-09-15T16:09:59.228Z,70.44
2022-09-15T16:24:04.997Z,71.78
2022-09-15T16:40:47.609Z,77.60
2022-09-15T16:54:51.962Z,79.41
2022-09-15T17:04:58.068Z,81.14
2022-09-15T17:15:05.287Z,83.24
2022-09-15T17:25:12.275Z,82.72
2022-09-15T17:35:19.569Z,85.07
2022-09-15T17:56:02.404Z,87.36
2022-09-15T18:06:07.689Z,91.04
2022-09-15T18:16:15.328Z,93.26
2022-09-15T18:26:26.357Z,96.52
2022-09-15T18:37:53.504Z,99.48
2022-09-15T18:49:19.798Z,100.00
2022-09-15T18:59:26.460Z,100.00
2022-09-15T19:13:32.264Z,100.00
2022-09-15T19:23:37.820Z,100.00
2022-09-15T19:33:47.122Z,100.00
2022-09-15T19:45:13.990Z,100.00
2022-09-15T19:57:59.781Z,100.00
2022-09-15T20:08:05.587Z,100.00
2022-09-15T20:18:12.319Z,100.00
2022-09-15T20:29:39.074Z,100.00
2022-09-15T20:39:45.529Z,100.00
2022-09-15T20:52:35.914Z,100.00
2022-09-15T21:02:42.067Z,100.00
2022-09-15T21:12:49.005Z,100.00
2022-09-15T21:22:55.987Z,100.00
2022-09-15T21:33:03.044Z,100.00
2022-09-15T21:43:10.111Z,100.00
2022-09-15T21:53:17.115Z,100.00
2022-09-15T22:04:43.008Z,100.00
2022-09-15T22:16:09.055Z,100.00
2022-09-15T22:26:15.329Z,100.00
2022-09-15T22:36:25.235Z,100.00
2022-09-15T22:46:33.769Z,100.00
2022-09-15T22:56:40.243Z,100.00
2022-09-15T23:08:06.240Z,100.00
2022-09-15T23:18:12.055Z,100.00
2022-09-15T23:28:19.029Z,100.00
2022-09-15T23:38:26.261Z,100.00
2022-09-15T23:48:33.298Z,100.00
2022-09-15T23:58:40.858Z,100.00
